createdAt,value
2023-02-06T11:24:23.658Z,0
2023-02-06T11:29:33.183Z,4.69
2023-02-06T11:34:42.066Z,3.7
2023-02-06T11:39:50.951Z,2.5
2023-02-06T11:44:59.840Z,3.1
2023-02-06T11:50:09.247Z,3.9
2023-02-06T11:55:19.270Z,3.8
2023-02-06T12:00:29.365Z,2.09
2023-02-06T12:05:39.470Z,3.2
2023-02-06T12:10:49.486Z,2.2
2023-02-06T12:15:59.388Z,3.2
2023-02-06T12:21:09.285Z,2.7
2023-02-06T12:26:19.176Z,2.6
2023-02-06T12:31:29.059Z,1.9
2023-02-06T12:36:38.936Z,1.6
2023-02-06T12:41:48.825Z,3.3
2023-02-06T12:46:59.234Z,2.4
2023-02-06T12:52:09.000Z,2.3
2023-02-06T12:57:19.011Z,3.5
2023-02-06T13:02:28.893Z,4.3
2023-02-06T13:07:38.787Z,3.2
2023-02-06T13:12:49.176Z,1.6
2023-02-06T13:17:59.056Z,2.4
2023-02-06T13:23:08.941Z,2.9
2023-02-06T13:28:18.000Z,3.5
2023-02-06T13:33:28.729Z,2.3
2023-02-06T13:38:38.610Z,2.09
2023-02-06T13:43:48.502Z,3.6
2023-02-06T13:48:58.397Z,1.5
2023-02-06T13:54:08.789Z,1.4
2023-02-06T13:59:18.681Z,2.2
2023-02-06T14:04:28.555Z,2.09
2023-02-06T14:09:38.464Z,4.3
2023-02-06T14:14:48.350Z,1.7
2023-02-06T14:19:58.228Z,3.8
2023-02-06T14:25:08.615Z,3.1
2023-02-06T14:30:18.501Z,2.8
2023-02-06T14:35:28.388Z,2.7
2023-02-06T14:40:38.775Z,2.09
2023-02-06T14:45:48.682Z,9.39
2023-02-06T14:50:58.559Z,14.9
2023-02-06T14:56:08.461Z,24.6
2023-02-06T15:01:18.347Z,20.9
2023-02-06T15:06:28.225Z,19.5
2023-02-06T15:11:38.619Z,25.1
2023-02-06T15:16:48.518Z,19.5
2023-02-06T15:21:58.403Z,15.5
2023-02-06T15:27:08.788Z,16.29
2023-02-06T15:32:18.674Z,11.8
2023-02-06T15:37:28.572Z,12.1
2023-02-06T15:42:38.457Z,14.8
2023-02-06T15:47:48.343Z,10.3
2023-02-06T15:52:58.238Z,11.9
2023-02-06T15:58:08.629Z,7
2023-02-06T16:03:18.519Z,6.8
2023-02-06T16:08:28.403Z,7.5
2023-02-06T16:13:38.801Z,8.6
2023-02-06T16:18:48.692Z,6
2023-02-06T16:23:58.578Z,7.5
2023-02-06T16:29:08.472Z,8
2023-02-06T16:34:18.362Z,10.9
2023-02-06T16:39:28.236Z,4.9
2023-02-06T16:44:38.629Z,4.9
2023-02-06T16:49:48.524Z,7.9
2023-02-06T16:54:58.416Z,6.8
2023-02-06T17:00:08.301Z,7.8
2023-02-06T17:05:18.183Z,4.8
2023-02-06T17:10:28.706Z,3.9
2023-02-06T17:15:38.815Z,4
2023-02-06T17:20:48.910Z,6.1
2023-02-06T17:25:58.925Z,6
2023-02-06T17:31:08.823Z,5.2
2023-02-06T17:36:18.718Z,4.8
2023-02-06T17:41:28.606Z,4.69
2023-02-06T17:46:38.484Z,5.1
2023-02-06T17:51:48.383Z,3
2023-02-06T17:56:58.262Z,2.8
2023-02-06T18:02:08.660Z,3.3
2023-02-06T18:07:18.670Z,5.9
2023-02-06T18:12:28.769Z,3.4
2023-02-06T18:17:38.874Z,2.9
2023-02-06T18:22:48.897Z,3.1
2023-02-06T18:27:58.796Z,4
2023-02-06T18:33:08.669Z,4.1
2023-02-06T18:38:18.566Z,5.1
2023-02-06T18:43:28.450Z,3.4
2023-02-06T18:48:38.353Z,3
2023-02-06T18:53:48.245Z,6.2
2023-02-06T18:58:58.613Z,2.5
2023-02-06T19:04:08.512Z,4
2023-02-06T19:09:18.395Z,2.8
2023-02-06T19:14:28.412Z,2.8
2023-02-06T19:19:38.514Z,2
2023-02-06T19:24:48.623Z,2.3
